Time;durP1;ratioP1;P1;durP2;ratioP2;P2;SDS_P1;SDS_P2;PMS_P1;PMS_P2;Temp;Humidity;BMP_temperature;BMP_pressure;BME280_temperature;BME280_humidity;BME280_pressure;Samples;Min_cycle;Max_cycle;Signal;HPM_P1;HPM_P2
2021/11/29 07:38:31;;;;;;;2.27;1.67;;;3.10;99.90;;;;;;4918090;29;20221;-79
2021/11/29 07:40:58;;;;;;;3.33;1.70;;;3.00;99.90;;;;;;4919300;29;20626;-79
2021/11/29 07:43:25;;;;;;;4.40;1.20;;;3.10;99.90;;;;;;4919126;29;20230;-79
2021/11/29 07:45:52;;;;;;;1.20;0.90;;;3.00;99.90;;;;;;4919150;29;20220;-79
2021/11/29 07:48:21;;;;;;;1.90;1.20;;;2.90;99.90;;;;;;4918981;29;20206;-79
2021/11/29 07:50:49;;;;;;;2.57;1.47;;;2.90;99.90;;;;;;4919834;29;20217;-80
2021/11/29 07:53:16;;;;;;;2.13;1.50;;;2.90;99.90;;;;;;4900982;29;20714;-79
2021/11/29 07:55:44;;;;;;;3.50;1.60;;;2.90;99.90;;;;;;4900059;29;20218;-80
2021/11/29 07:58:11;;;;;;;4.03;1.90;;;2.90;99.90;;;;;;4900184;29;20215;-80
2021/11/29 08:00:38;;;;;;;3.87;1.73;;;2.90;99.90;;;;;;4900185;29;20270;-80
2021/11/29 08:03:07;;;;;;;3.50;1.60;;;2.90;99.90;;;;;;4900006;29;20238;-80
2021/11/29 08:05:35;;;;;;;1.73;1.30;;;3.00;99.90;;;;;;4900414;29;20253;-78
2021/11/29 08:08:05;;;;;;;1.97;1.37;;;3.00;99.90;;;;;;4900144;29;20221;-75
2021/11/29 08:10:34;;;;;;;1.50;1.17;;;3.00;99.90;;;;;;4899770;29;20302;-79
2021/11/29 08:13:03;;;;;;;2.77;1.70;;;2.90;99.90;;;;;;4900118;29;20577;-79
2021/11/29 08:15:30;;;;;;;5.93;1.70;;;3.10;99.90;;;;;;4900133;29;20210;-80
2021/11/29 08:17:57;;;;;;;2.23;1.67;;;3.20;99.90;;;;;;4900439;29;20224;-79
2021/11/29 08:20:24;;;;;;;2.93;1.93;;;3.20;99.90;;;;;;4900246;29;20242;-80
2021/11/29 08:22:52;;;;;;;2.60;1.63;;;3.20;99.90;;;;;;4899828;29;20234;-80
2021/11/29 08:25:19;;;;;;;3.60;1.77;;;3.20;99.90;;;;;;4900062;29;20217;-80
2021/11/29 08:27:46;;;;;;;3.40;1.77;;;3.30;99.90;;;;;;4899708;29;20679;-82
2021/11/29 08:30:16;;;;;;;2.60;2.03;;;3.30;99.90;;;;;;4900035;29;20210;-81
2021/11/29 08:32:44;;;;;;;4.07;1.80;;;3.10;99.90;;;;;;4899803;29;20567;-80
2021/11/29 08:35:12;;;;;;;10.17;2.13;;;2.90;99.90;;;;;;4904671;29;20206;-80
2021/11/29 08:37:45;;;;;;;3.43;1.90;;;2.90;99.90;;;;;;4918255;29;20225;-80
2021/11/29 08:40:13;;;;;;;2.43;1.50;;;2.90;99.90;;;;;;4918194;29;20646;-80
2021/11/29 08:42:40;;;;;;;5.77;2.13;;;3.00;99.90;;;;;;4918085;29;20217;-79
2021/11/29 08:45:07;;;;;;;4.97;1.80;;;3.20;99.90;;;;;;4918846;29;20216;-80
2021/11/29 08:47:36;;;;;;;4.07;1.87;;;3.40;99.90;;;;;;4918365;29;20213;-81
2021/11/29 08:50:04;;;;;;;2.57;1.80;;;3.60;99.90;;;;;;4913094;29;20202;-80
2021/11/29 08:52:33;;;;;;;4.67;1.77;;;3.70;99.90;;;;;;4899532;29;20206;-81
2021/11/29 08:55:01;;;;;;;3.03;1.70;;;3.70;99.90;;;;;;4898498;29;20304;-81
2021/11/29 08:57:28;;;;;;;2.40;1.83;;;3.50;99.90;;;;;;4899921;29;20664;-82
2021/11/29 08:59:54;;;;;;;2.60;1.90;;;3.70;99.90;;;;;;4899381;29;20238;-82
2021/11/29 09:02:21;;;;;;;2.73;1.80;;;3.70;99.90;;;;;;4899321;29;20210;-83
2021/11/29 09:04:50;;;;;;;2.47;1.93;;;3.70;99.90;;;;;;4910591;29;20698;-82
2021/11/29 09:07:17;;;;;;;1.80;1.60;;;3.60;99.90;;;;;;4904083;29;20214;-82
2021/11/29 09:09:43;;;;;;;4.40;1.87;;;3.70;99.90;;;;;;4898194;29;20212;-81
2021/11/29 09:12:12;;;;;;;6.73;2.00;;;3.80;99.90;;;;;;4914074;29;20202;-77
2021/11/29 09:14:38;;;;;;;2.10;1.80;;;3.80;99.90;;;;;;4917474;29;20288;-81
2021/11/29 09:17:05;;;;;;;3.77;2.10;;;4.00;99.90;;;;;;4907287;29;20213;-76
2021/11/29 09:19:32;;;;;;;3.07;1.50;;;3.90;99.90;;;;;;4904368;29;20202;-82
2021/11/29 09:22:00;;;;;;;6.33;1.93;;;4.00;99.90;;;;;;4906649;29;20225;-82
2021/11/29 09:24:27;;;;;;;6.80;1.33;;;3.90;99.90;;;;;;4917622;29;20234;-83
2021/11/29 09:26:54;;;;;;;2.87;1.73;;;3.90;99.90;;;;;;4906589;29;20206;-83
2021/11/29 09:29:21;;;;;;;2.27;1.50;;;3.90;99.90;;;;;;4909620;29;20665;-80
2021/11/29 09:31:47;;;;;;;6.67;1.80;;;3.90;99.90;;;;;;4917669;29;20213;-82
2021/11/29 09:34:14;;;;;;;3.60;1.50;;;3.80;99.90;;;;;;4917453;29;20321;-83
2021/11/29 09:36:41;;;;;;;1.93;1.50;;;3.90;99.90;;;;;;4917374;29;20206;-81
2021/11/29 09:39:10;;;;;;;1.90;1.17;;;3.90;99.90;;;;;;4899503;29;20343;-84
2021/11/29 09:41:37;;;;;;;3.97;1.70;;;3.80;99.90;;;;;;4898808;29;20241;-83
2021/11/29 09:44:05;;;;;;;2.17;1.53;;;3.80;99.90;;;;;;4898206;29;20240;-83
2021/11/29 09:46:33;;;;;;;1.87;1.50;;;3.90;99.90;;;;;;4913246;29;20227;-82
2021/11/29 09:49:00;;;;;;;3.83;1.70;;;4.10;99.90;;;;;;4916082;29;20675;-82
2021/11/29 09:51:27;;;;;;;2.33;1.23;;;4.20;99.90;;;;;;4917110;29;20224;-83
2021/11/29 09:53:54;;;;;;;1.60;1.30;;;4.30;99.90;;;;;;4913631;29;20228;-83
2021/11/29 09:56:22;;;;;;;2.73;1.60;;;4.40;99.90;;;;;;4898390;29;20221;-83
2021/11/29 09:58:49;;;;;;;2.83;1.27;;;4.40;99.90;;;;;;4898420;29;20218;-85
2021/11/29 10:01:17;;;;;;;1.77;1.17;;;4.40;99.90;;;;;;4897914;29;20244;-84
2021/11/29 10:03:45;;;;;;;1.40;1.00;;;4.20;99.90;;;;;;4897922;29;20234;-83
2021/11/29 10:06:12;;;;;;;3.60;1.17;;;4.00;99.90;;;;;;4911156;29;20663;-83
2021/11/29 10:08:39;;;;;;;4.10;1.70;;;4.00;99.90;;;;;;4917184;29;20240;-83
2021/11/29 10:11:11;;;;;;;1.93;1.23;;;4.10;99.90;;;;;;4917698;29;20214;-82
2021/11/29 10:13:52;;;;;;;1.80;1.00;;;4.10;99.90;;;;;;4902445;29;20224;-82
2021/11/29 10:16:34;;;;;;;3.43;1.03;;;4.20;99.90;;;;;;4897758;29;20726;-82
2021/11/29 10:19:01;;;;;;;5.00;1.40;;;4.40;99.90;;;;;;4897880;29;20212;-76
2021/11/29 10:21:28;;;;;;;3.17;1.33;;;4.50;99.90;;;;;;4897901;29;20749;-84
2021/11/29 10:23:58;;;;;;;2.20;1.37;;;4.50;99.90;;;;;;4898005;29;20241;-83
2021/11/29 10:26:28;;;;;;;1.80;1.00;;;4.60;99.90;;;;;;4903000;29;20206;-78
2021/11/29 10:28:58;;;;;;;5.60;1.23;;;4.70;99.90;;;;;;4915036;29;20224;-80
2021/11/29 10:31:28;;;;;;;5.33;1.73;;;4.80;99.90;;;;;;4906097;29;20257;-80
2021/11/29 10:33:59;;;;;;;10.83;2.00;;;4.90;99.90;;;;;;4916328;29;20232;-81
2021/11/29 10:36:29;;;;;;;11.27;1.37;;;5.00;99.90;;;;;;4900180;29;20568;-81
2021/11/29 10:38:59;;;;;;;2.70;1.50;;;5.10;99.90;;;;;;4897447;29;20229;-80
2021/11/29 10:41:29;;;;;;;4.57;1.50;;;5.10;99.90;;;;;;4898034;29;20333;-82
2021/11/29 10:43:58;;;;;;;3.10;1.27;;;4.90;99.90;;;;;;4897746;29;20586;-75
2021/11/29 10:46:29;;;;;;;5.57;1.87;;;4.90;99.90;;;;;;4897994;29;20573;-76
2021/11/29 10:48:58;;;;;;;6.50;1.70;;;4.80;99.90;;;;;;4897832;29;20596;-80
2021/11/29 10:51:25;;;;;;;5.93;1.50;;;4.80;99.90;;;;;;4897438;29;20676;-80
2021/11/29 10:53:56;;;;;;;4.73;1.30;;;4.90;99.90;;;;;;4897449;29;20715;-78
2021/11/29 10:56:25;;;;;;;4.77;1.83;;;5.00;99.90;;;;;;4897680;29;20221;-82
2021/11/29 10:58:55;;;;;;;3.00;1.40;;;5.10;99.90;;;;;;4897732;29;20210;-82
2021/11/29 11:01:36;;;;;;;5.80;1.27;;;5.20;99.90;;;;;;4897349;29;20734;-84
2021/11/29 11:04:04;;;;;;;7.27;1.70;;;5.10;99.90;;;;;;4896964;29;20226;-75
2021/11/29 11:06:34;;;;;;;4.07;1.50;;;5.10;99.90;;;;;;4913135;29;20231;-82
2021/11/29 11:09:01;;;;;;;2.53;1.20;;;5.10;99.90;;;;;;4897095;29;20203;-78
2021/11/29 11:11:31;;;;;;;5.57;1.20;;;5.20;99.90;;;;;;4896062;29;20206;-81
2021/11/29 11:13:59;;;;;;;3.50;1.70;;;5.30;99.90;;;;;;4897061;29;20547;-82
2021/11/29 11:16:44;;;;;;;2.53;1.07;;;5.30;99.90;;;;;;4896817;29;20211;-82
2021/11/29 11:19:20;;;;;;;8.50;1.00;;;5.40;99.90;;;;;;4900002;29;20750;-82
2021/11/29 11:21:47;;;;;;;6.97;1.17;;;5.60;99.90;;;;;;4900750;29;20248;-79
2021/11/29 11:24:26;;;;;;;6.47;2.93;;;5.70;99.90;;;;;;4901344;29;20226;-83
2021/11/29 11:26:56;;;;;;;5.03;1.10;;;5.80;99.90;;;;;;4900345;29;20206;-82
2021/11/29 11:29:38;;;;;;;1.93;1.00;;;5.90;99.90;;;;;;4900407;29;20217;-83
2021/11/29 11:32:35;;;;;;;3.13;1.03;;;5.90;99.90;;;;;;4900277;29;20217;-81
2021/11/29 11:35:06;;;;;;;4.13;1.40;;;6.00;99.90;;;;;;4899001;29;20205;-81
2021/11/29 11:37:35;;;;;;;2.83;1.10;;;6.10;99.90;;;;;;4918412;29;20225;-81
2021/11/29 11:40:09;;;;;;;6.10;1.27;;;6.20;99.90;;;;;;4918679;29;20210;-78
2021/11/29 11:42:36;;;;;;;3.60;1.23;;;6.20;99.90;;;;;;4908396;29;20236;-84
2021/11/29 11:45:07;;;;;;;3.20;0.73;;;6.20;99.90;;;;;;4914814;29;20208;-82
2021/11/29 11:47:36;;;;;;;2.37;0.80;;;6.20;99.90;;;;;;4919154;29;20214;-81
2021/11/29 11:50:04;;;;;;;2.33;0.70;;;6.30;99.90;;;;;;4918964;29;20210;-81
2021/11/29 11:52:32;;;;;;;12.10;1.47;;;6.40;99.90;;;;;;4918903;29;20224;-79
2021/11/29 11:55:01;;;;;;;4.10;1.40;;;6.40;99.90;;;;;;4900980;29;20218;-81
2021/11/29 11:57:29;;;;;;;8.87;1.43;;;6.40;99.90;;;;;;4900439;29;20670;-80
2021/11/29 12:00:13;;;;;;;5.20;1.10;;;6.30;99.90;;;;;;4900412;29;20217;-83
2021/11/29 12:03:03;;;;;;;7.37;1.10;;;6.40;99.90;;;;;;4899824;29;20242;-83
2021/11/29 12:05:32;;;;;;;2.97;0.90;;;6.40;99.90;;;;;;4908666;29;20263;-81
2021/11/29 12:07:59;;;;;;;3.40;1.13;;;6.40;99.90;;;;;;4917981;29;20209;-75
2021/11/29 12:10:38;;;;;;;3.17;1.20;;;6.40;99.90;;;;;;4899538;29;20210;-81
2021/11/29 12:13:07;;;;;;;8.13;1.20;;;6.50;99.90;;;;;;4899606;29;20241;-81
2021/11/29 12:15:40;;;;;;;7.73;1.30;;;6.50;99.90;;;;;;4899777;29;20218;-81
2021/11/29 12:18:09;;;;;;;11.73;1.90;;;6.50;99.90;;;;;;4911243;29;20241;-80
2021/11/29 12:20:37;;;;;;;4.30;1.03;;;6.60;99.90;;;;;;4926396;29;20235;-71
2021/11/29 12:23:05;;;;;;;5.97;1.47;;;6.60;99.90;;;;;;4931539;29;20606;-77
2021/11/29 12:25:45;;;;;;;2.20;0.77;;;6.60;99.90;;;;;;4916511;29;20210;-72
2021/11/29 12:28:12;;;;;;;7.60;0.77;;;6.70;99.90;;;;;;4915948;29;20215;-73
2021/11/29 12:30:42;;;;;;;5.13;1.93;;;6.80;99.90;;;;;;4921979;29;20741;-74
2021/11/29 12:33:13;;;;;;;5.17;0.60;;;6.90;99.90;;;;;;4920772;29;20315;-73
2021/11/29 12:35:43;;;;;;;2.30;0.77;;;7.00;99.90;;;;;;4901914;29;20288;-75
2021/11/29 12:38:11;;;;;;;3.50;0.77;;;7.00;99.90;;;;;;4902994;29;20308;-80
2021/11/29 12:40:47;;;;;;;2.73;0.53;;;6.90;99.90;;;;;;4912045;29;20305;-78
2021/11/29 12:43:32;;;;;;;12.60;0.83;;;7.00;99.90;;;;;;4911439;29;20229;-78
2021/11/29 12:46:18;;;;;;;5.50;0.77;;;7.00;99.90;;;;;;4911865;29;20201;-72
2021/11/29 12:48:46;;;;;;;2.10;0.50;;;7.00;99.90;;;;;;4914191;29;20287;-73
2021/11/29 12:51:14;;;;;;;2.47;0.70;;;7.00;99.90;;;;;;4908782;29;20210;-76
2021/11/29 12:53:41;;;;;;;3.47;0.87;;;7.10;99.90;;;;;;4907432;29;20695;-73
2021/11/29 12:56:20;;;;;;;2.47;0.93;;;7.20;99.90;;;;;;4909542;29;21063;-73
2021/11/29 12:59:06;;;;;;;4.10;1.07;;;7.20;99.90;;;;;;4914859;29;20213;-75
2021/11/29 13:01:39;;;;;;;4.23;1.47;;;7.20;99.90;;;;;;4915679;29;20229;-76
2021/11/29 13:04:21;;;;;;;1.73;0.90;;;7.20;99.90;;;;;;4907412;29;20751;-72
2021/11/29 13:06:57;;;;;;;3.00;0.63;;;7.30;99.90;;;;;;4909093;29;20210;-79
2021/11/29 13:09:24;;;;;;;11.50;1.10;;;7.30;99.90;;;;;;4906047;29;20205;-74
2021/11/29 13:11:51;;;;;;;2.73;0.63;;;7.50;99.90;;;;;;4913489;29;20214;-74
2021/11/29 13:14:23;;;;;;;1.40;0.73;;;7.60;99.90;;;;;;4915941;29;20252;-75
2021/11/29 13:16:52;;;;;;;1.93;0.70;;;7.60;99.90;;;;;;4911435;29;20696;-81
2021/11/29 13:19:22;;;;;;;3.73;0.50;;;7.60;99.90;;;;;;4915159;29;20213;-75
2021/11/29 13:21:53;;;;;;;1.23;0.43;;;7.70;99.90;;;;;;4911043;29;20324;-76
2021/11/29 13:24:29;;;;;;;1.73;0.80;;;7.70;99.90;;;;;;4912983;29;20229;-72
2021/11/29 13:26:59;;;;;;;1.50;0.47;;;7.70;99.90;;;;;;4904838;29;20216;-71
2021/11/29 13:29:29;;;;;;;1.47;0.30;;;7.90;99.90;;;;;;4914394;29;20758;-74
2021/11/29 13:31:58;;;;;;;1.40;0.50;;;7.80;99.90;;;;;;4909954;29;20210;-81
2021/11/29 13:34:31;;;;;;;6.47;0.73;;;7.80;99.90;;;;;;4909040;29;20313;-75
2021/11/29 13:37:00;;;;;;;1.03;0.60;;;7.90;99.90;;;;;;4937137;23;20327;-78
2021/11/29 13:39:29;;;;;;;3.77;1.07;;;7.90;99.90;;;;;;4932999;29;20209;-77
2021/11/29 13:42:18;;;;;;;3.60;0.87;;;7.80;99.90;;;;;;4929235;29;20796;-74
2021/11/29 13:44:55;;;;;;;3.17;0.60;;;7.80;99.90;;;;;;4914426;29;20229;-77
2021/11/29 13:47:27;;;;;;;1.67;0.70;;;7.80;99.90;;;;;;4915550;29;20219;-76
2021/11/29 13:50:00;;;;;;;2.47;0.70;;;7.60;99.90;;;;;;4911103;29;20327;-78
2021/11/29 13:52:27;;;;;;;4.50;0.73;;;7.50;99.90;;;;;;4914212;29;20248;-75
2021/11/29 13:54:57;;;;;;;5.50;0.57;;;7.50;99.90;;;;;;4910923;29;20229;-77
2021/11/29 13:57:40;;;;;;;4.83;0.73;;;7.40;99.90;;;;;;4909549;29;20289;-78
2021/11/29 14:00:20;;;;;;;2.50;0.80;;;7.40;99.90;;;;;;4913205;29;20206;-76
2021/11/29 14:03:04;;;;;;;1.27;0.53;;;7.30;99.90;;;;;;4912539;29;20247;-71
2021/11/29 14:05:34;;;;;;;2.77;0.83;;;7.40;99.90;;;;;;4914661;29;20202;-76
2021/11/29 14:08:04;;;;;;;2.07;0.60;;;7.40;99.90;;;;;;4913988;29;20209;-74
2021/11/29 14:10:34;;;;;;;2.87;0.80;;;7.40;99.90;;;;;;4912829;29;20261;-72
2021/11/29 14:13:02;;;;;;;2.23;0.40;;;7.50;99.90;;;;;;4910471;29;20230;-73
2021/11/29 14:15:32;;;;;;;5.13;0.70;;;7.60;99.90;;;;;;4899517;29;20215;-72
2021/11/29 14:18:01;;;;;;;3.70;0.40;;;7.50;99.90;;;;;;4912710;29;20209;-74
2021/11/29 14:20:29;;;;;;;1.90;0.40;;;7.60;99.90;;;;;;4908307;29;20210;-75
2021/11/29 14:22:58;;;;;;;2.30;0.47;;;7.70;99.90;;;;;;4900922;29;20943;-73
2021/11/29 14:25:25;;;;;;;1.97;0.50;;;7.80;99.90;;;;;;4905690;29;20832;-72
2021/11/29 14:27:52;;;;;;;1.90;0.60;;;7.90;99.90;;;;;;4910280;29;20202;-71
2021/11/29 14:30:19;;;;;;;1.77;0.70;;;7.90;99.90;;;;;;4913454;29;20205;-71
2021/11/29 14:32:46;;;;;;;5.13;1.07;;;7.80;99.90;;;;;;4914340;29;20217;-74
2021/11/29 14:35:13;;;;;;;2.27;0.50;;;7.60;99.90;;;;;;4915020;29;20297;-73
2021/11/29 14:37:41;;;;;;;3.63;0.70;;;7.50;99.90;;;;;;4915208;29;20209;-76
2021/11/29 14:40:12;;;;;;;5.27;0.67;;;7.40;99.90;;;;;;4910722;29;20229;-73
2021/11/29 14:42:41;;;;;;;3.53;0.60;;;7.50;99.90;;;;;;4906184;29;20722;-75
2021/11/29 14:45:11;;;;;;;1.50;0.60;;;7.40;99.90;;;;;;4916001;29;20202;-73
2021/11/29 14:47:40;;;;;;;4.90;0.97;;;7.40;99.90;;;;;;4915964;29;20213;-73
2021/11/29 14:50:11;;;;;;;11.43;0.90;;;7.40;99.90;;;;;;4915592;29;20213;-72
2021/11/29 14:52:41;;;;;;;3.00;0.93;;;7.30;99.90;;;;;;4914250;29;20221;-73
2021/11/29 14:55:11;;;;;;;4.53;0.70;;;7.30;99.90;;;;;;4917247;29;20216;-73
2021/11/29 14:57:46;;;;;;;6.00;0.73;;;7.20;99.90;;;;;;4917693;29;20685;-73
2021/11/29 15:00:16;;;;;;;1.23;0.50;;;7.10;99.90;;;;;;4918836;29;20689;-74
2021/11/29 15:02:43;;;;;;;3.90;0.70;;;7.00;99.90;;;;;;4916142;29;20241;-74
2021/11/29 15:05:13;;;;;;;4.03;0.83;;;7.00;99.90;;;;;;4919143;29;20257;-74
2021/11/29 15:07:41;;;;;;;7.90;1.07;;;7.00;99.90;;;;;;4919009;29;20217;-73
2021/11/29 15:10:14;;;;;;;1.87;0.60;;;6.90;99.90;;;;;;4918745;29;20212;-73
2021/11/29 15:12:42;;;;;;;2.33;0.93;;;6.80;99.90;;;;;;4919413;29;20210;-73
2021/11/29 15:15:21;;;;;;;2.37;0.63;;;6.60;99.90;;;;;;4919593;29;20215;-72
2021/11/29 15:17:49;;;;;;;3.63;1.27;;;6.50;99.90;;;;;;4918716;29;20554;-79
2021/11/29 15:20:17;;;;;;;7.67;1.00;;;6.30;99.90;;;;;;4906206;29;20278;-75
2021/11/29 15:22:49;;;;;;;3.00;1.10;;;6.30;99.90;;;;;;4915853;29;20328;-76
2021/11/29 15:25:23;;;;;;;3.47;0.80;;;6.20;99.90;;;;;;4918321;29;20205;-75
2021/11/29 15:27:50;;;;;;;4.00;0.80;;;6.20;99.90;;;;;;4918696;29;20213;-76
2021/11/29 15:30:28;;;;;;;3.40;0.90;;;6.20;99.90;;;;;;4918548;29;20206;-76
2021/11/29 15:32:58;;;;;;;3.57;0.50;;;6.20;99.90;;;;;;4919333;29;20229;-76
2021/11/29 15:35:27;;;;;;;3.30;0.73;;;6.00;99.90;;;;;;4901095;29;20215;-75
2021/11/29 15:38:18;;;;;;;3.47;1.10;;;6.00;99.90;;;;;;4912752;29;20586;-76
2021/11/29 15:40:56;;;;;;;2.60;0.83;;;6.00;99.90;;;;;;4919618;29;20210;-76
2021/11/29 15:43:27;;;;;;;2.57;0.60;;;5.90;99.90;;;;;;4929519;29;20233;-83
2021/11/29 15:46:00;;;;;;;6.93;1.27;;;5.90;99.90;;;;;;4931977;29;20212;-79
2021/11/29 15:48:29;;;;;;;3.67;1.00;;;5.90;99.90;;;;;;4927307;29;20300;-79
2021/11/29 15:50:59;;;;;;;3.47;0.80;;;5.90;99.90;;;;;;4920245;29;20210;-78
2021/11/29 15:53:26;;;;;;;3.17;0.90;;;5.80;99.90;;;;;;4916297;29;20728;-77
2021/11/29 15:55:55;;;;;;;2.23;0.70;;;5.80;99.90;;;;;;4920341;29;20670;-85
2021/11/29 15:58:24;;;;;;;2.90;1.10;;;5.90;99.90;;;;;;4919426;29;20213;-79
2021/11/29 16:00:52;;;;;;;4.50;0.80;;;6.00;99.90;;;;;;4917306;29;20690;-79
2021/11/29 16:03:19;;;;;;;2.83;0.97;;;6.00;99.90;;;;;;4916811;29;20308;-78
2021/11/29 16:05:46;;;;;;;9.47;3.00;;;6.10;99.90;;;;;;4918083;29;20209;-74
2021/11/29 16:08:17;;;;;;;5.43;0.50;;;6.10;99.90;;;;;;4918264;29;20745;-76
2021/11/29 16:10:44;;;;;;;2.40;0.50;;;6.20;99.90;;;;;;4918617;29;20248;-77
2021/11/29 16:13:12;;;;;;;2.83;0.73;;;6.30;99.90;;;;;;4917563;29;20256;-78
2021/11/29 16:15:40;;;;;;;1.70;0.40;;;6.40;99.90;;;;;;4918390;29;20232;-79
2021/11/29 16:18:07;;;;;;;1.00;0.50;;;6.30;99.90;;;;;;4914520;29;20207;-77
2021/11/29 16:20:34;;;;;;;1.20;0.40;;;6.30;99.90;;;;;;4899269;29;20214;-81
2021/11/29 16:23:01;;;;;;;3.27;0.40;;;6.30;99.90;;;;;;4908585;29;20252;-81
2021/11/29 16:25:29;;;;;;;1.07;0.70;;;6.30;99.90;;;;;;4918063;29;20214;-82
2021/11/29 16:27:56;;;;;;;0.97;0.40;;;6.30;99.90;;;;;;4918439;29;20691;-80
2021/11/29 16:30:30;;;;;;;1.67;0.73;;;6.20;99.90;;;;;;4918113;29;20253;-78
2021/11/29 16:32:59;;;;;;;2.00;0.70;;;6.20;99.90;;;;;;4916522;29;20726;-78
2021/11/29 16:35:26;;;;;;;2.87;0.80;;;6.10;99.90;;;;;;4916761;29;20659;-79
2021/11/29 16:37:53;;;;;;;5.70;0.67;;;6.00;99.90;;;;;;4900435;29;20226;-79
2021/11/29 16:40:21;;;;;;;3.87;1.13;;;5.90;99.90;;;;;;4898311;29;20220;-82
2021/11/29 16:42:48;;;;;;;4.10;1.00;;;5.80;99.90;;;;;;4913273;29;20237;-79
2021/11/29 16:45:15;;;;;;;3.17;1.30;;;5.80;99.90;;;;;;4917531;29;20209;-80
2021/11/29 16:47:43;;;;;;;3.70;1.50;;;5.90;99.90;;;;;;4917843;29;20209;-81
2021/11/29 16:50:12;;;;;;;3.47;1.47;;;5.80;99.90;;;;;;4918176;29;20213;-81
2021/11/29 16:52:39;;;;;;;5.07;1.50;;;5.90;99.90;;;;;;4913270;29;20241;-82
2021/11/29 16:55:08;;;;;;;3.77;1.20;;;5.80;99.90;;;;;;4918248;29;20297;-84
2021/11/29 16:57:38;;;;;;;4.77;1.40;;;5.80;99.90;;;;;;4917718;29;20678;-82
2021/11/29 17:00:09;;;;;;;7.00;1.40;;;5.80;99.90;;;;;;4917750;29;20212;-80
2021/11/29 17:02:36;;;;;;;3.80;1.27;;;5.80;99.90;;;;;;4917367;29;20238;-77
2021/11/29 17:05:05;;;;;;;2.03;1.20;;;5.80;99.90;;;;;;4917541;29;20257;-78
2021/11/29 17:07:32;;;;;;;4.70;1.17;;;5.90;99.90;;;;;;4917210;29;20224;-74
2021/11/29 17:09:59;;;;;;;9.93;1.57;;;5.90;99.90;;;;;;4917112;29;20209;-78
2021/11/29 17:12:26;;;;;;;3.23;1.30;;;6.00;99.90;;;;;;4916626;29;20198;-79
2021/11/29 17:14:55;;;;;;;2.87;1.23;;;6.10;99.90;;;;;;4915897;29;20236;-78
2021/11/29 17:17:22;;;;;;;3.53;1.27;;;6.10;99.90;;;;;;4916822;29;20300;-79
2021/11/29 17:19:49;;;;;;;4.73;1.20;;;6.20;99.90;;;;;;4926538;29;20219;-85
2021/11/29 17:22:18;;;;;;;3.50;1.27;;;6.10;99.90;;;;;;4922290;29;20734;-81
2021/11/29 17:24:49;;;;;;;5.80;1.30;;;6.20;99.90;;;;;;4897781;29;20242;-79
2021/11/29 17:27:17;;;;;;;3.50;1.37;;;6.20;99.90;;;;;;4910590;29;20607;-81
2021/11/29 17:29:44;;;;;;;5.00;1.43;;;6.10;99.90;;;;;;4916242;29;20210;-74
2021/11/29 17:32:11;;;;;;;2.97;1.00;;;5.90;99.90;;;;;;4915372;29;20210;-78
2021/11/29 17:34:38;;;;;;;2.20;1.43;;;5.80;99.90;;;;;;4916825;29;20245;-79
2021/11/29 17:37:05;;;;;;;5.87;1.30;;;5.70;99.90;;;;;;4916848;29;20224;-80
2021/11/29 17:39:34;;;;;;;2.57;1.10;;;5.60;99.90;;;;;;4913472;29;20202;-79
2021/11/29 17:42:02;;;;;;;2.13;1.20;;;5.60;99.90;;;;;;4899878;29;20221;-78
2021/11/29 17:44:29;;;;;;;4.63;1.17;;;5.40;99.90;;;;;;4916272;29;20269;-79
2021/11/29 17:46:57;;;;;;;2.50;1.00;;;5.40;99.90;;;;;;4916349;29;20216;-79
2021/11/29 17:49:26;;;;;;;2.70;0.97;;;5.40;99.90;;;;;;4916201;29;20212;-79
2021/11/29 17:51:53;;;;;;;1.97;1.00;;;5.50;99.90;;;;;;4916453;29;20296;-78
2021/11/29 17:54:20;;;;;;;2.67;1.00;;;5.50;99.90;;;;;;4916063;29;20309;-80
2021/11/29 17:56:49;;;;;;;6.80;1.73;;;5.60;99.90;;;;;;4912980;29;20229;-76
2021/11/29 17:59:16;;;;;;;3.30;1.50;;;5.60;99.90;;;;;;4897607;29;20214;-74
2021/11/29 18:01:43;;;;;;;6.80;1.53;;;5.50;99.90;;;;;;4897755;29;20809;-73
2021/11/29 18:04:11;;;;;;;6.40;1.40;;;5.50;99.90;;;;;;4901766;29;20243;-77
2021/11/29 18:06:41;;;;;;;4.90;1.50;;;5.50;99.90;;;;;;4916119;29;20210;-77
2021/11/29 18:14:55;;;;;;;4.63;1.40;;;5.50;99.90;;;;;;4894790;29;20233;-77
2021/11/29 18:17:22;;;;;;;4.20;1.27;;;5.50;99.90;;;;;;4915826;29;20218;-77
2021/11/29 18:19:50;;;;;;;5.83;2.37;;;5.40;99.90;;;;;;4915715;29;20213;-78
2021/11/29 18:22:17;;;;;;;6.87;2.10;;;5.40;99.90;;;;;;4914600;29;20241;-78
2021/11/29 18:24:44;;;;;;;4.93;1.60;;;5.50;99.90;;;;;;4915090;29;20304;-76
2021/11/29 18:27:13;;;;;;;3.03;1.30;;;5.50;99.90;;;;;;4918140;29;20582;-80
2021/11/29 18:29:40;;;;;;;4.37;1.10;;;5.50;99.90;;;;;;4918301;29;20586;-78
2021/11/29 18:32:08;;;;;;;2.17;1.33;;;5.50;99.90;;;;;;4903631;29;20205;-77
2021/11/29 18:34:35;;;;;;;6.00;1.50;;;5.40;99.90;;;;;;4920064;29;20601;-78
2021/11/29 18:37:02;;;;;;;4.87;1.37;;;5.40;99.90;;;;;;4920374;29;20217;-79
2021/11/29 18:39:29;;;;;;;1.90;1.20;;;5.40;99.90;;;;;;4920276;29;20213;-78
2021/11/29 18:41:56;;;;;;;3.10;1.70;;;5.30;99.90;;;;;;4919833;29;20296;-77
2021/11/29 18:44:24;;;;;;;5.40;1.60;;;5.20;99.90;;;;;;4919492;29;20248;-78
2021/11/29 18:46:51;;;;;;;5.87;1.80;;;5.10;99.90;;;;;;4904651;29;20207;-78
2021/11/29 18:49:17;;;;;;;5.37;1.60;;;5.10;99.90;;;;;;4905500;29;20205;-77
2021/11/29 18:51:45;;;;;;;6.03;1.83;;;5.10;99.90;;;;;;4919839;29;20255;-79
2021/11/29 18:54:12;;;;;;;4.77;1.77;;;5.10;99.90;;;;;;4919396;29;20235;-78
2021/11/29 18:56:39;;;;;;;2.57;1.60;;;5.10;99.90;;;;;;4919199;29;20202;-78
2021/11/29 18:59:06;;;;;;;3.67;1.50;;;5.10;99.90;;;;;;4919082;29;20683;-78
2021/11/29 19:01:34;;;;;;;8.47;2.30;;;5.10;99.90;;;;;;4918534;29;20267;-78
2021/11/29 19:04:02;;;;;;;5.27;1.33;;;5.10;99.90;;;;;;4919249;29;20281;-77
2021/11/29 19:06:28;;;;;;;3.87;1.93;;;5.10;99.90;;;;;;4919615;29;20730;-78
2021/11/29 19:08:55;;;;;;;3.50;2.00;;;5.10;99.90;;;;;;4915998;29;20205;-77
2021/11/29 19:11:22;;;;;;;8.00;2.70;;;5.20;99.90;;;;;;4920519;29;20420;-75
2021/11/29 19:13:49;;;;;;;5.90;2.20;;;5.10;99.90;;;;;;4919798;29;20255;-77
2021/11/29 19:16:16;;;;;;;6.40;2.30;;;5.00;99.90;;;;;;4938047;29;20215;-77
2021/11/29 19:18:44;;;;;;;8.97;2.43;;;5.00;99.90;;;;;;4915043;29;20201;-75
2021/11/29 19:21:11;;;;;;;7.60;2.27;;;4.90;99.90;;;;;;4919191;29;20766;-78
2021/11/29 19:23:39;;;;;;;5.67;1.97;;;4.90;99.90;;;;;;4919515;29;20241;-76
2021/11/29 19:26:06;;;;;;;4.70;1.97;;;4.90;99.90;;;;;;4918257;29;20614;-80
2021/11/29 19:28:33;;;;;;;9.17;2.80;;;4.80;99.90;;;;;;4919596;29;20524;-79
2021/11/29 19:31:00;;;;;;;7.23;2.17;;;4.80;99.90;;;;;;4919446;29;20697;-77
2021/11/29 19:33:27;;;;;;;7.63;2.17;;;4.70;99.90;;;;;;4919411;29;20233;-77
2021/11/29 19:35:56;;;;;;;5.63;1.97;;;4.70;99.90;;;;;;4927461;23;20207;-73
2021/11/29 19:38:23;;;;;;;6.63;2.30;;;4.70;99.90;;;;;;4917208;29;20222;-73
2021/11/29 19:40:57;;;;;;;3.53;1.90;;;4.70;99.90;;;;;;4918662;29;20210;-74
2021/11/29 19:43:25;;;;;;;10.60;2.67;;;4.60;99.90;;;;;;4918812;29;20318;-71
2021/11/29 19:45:51;;;;;;;6.20;2.37;;;4.70;99.90;;;;;;4900399;29;20213;-71
2021/11/29 19:48:18;;;;;;;7.77;2.40;;;4.60;99.90;;;;;;4900123;29;20215;-70
2021/11/29 19:50:45;;;;;;;7.30;2.40;;;4.50;99.90;;;;;;4896702;29;20203;-70
2021/11/29 19:53:13;;;;;;;8.90;3.10;;;4.50;99.90;;;;;;4883209;29;20737;-70
2021/11/29 19:55:40;;;;;;;7.77;3.20;;;4.60;99.90;;;;;;4899829;29;20214;-71
2021/11/29 19:58:07;;;;;;;5.07;2.40;;;4.60;99.90;;;;;;4899839;29;20207;-71
2021/11/29 20:00:35;;;;;;;7.30;2.80;;;4.60;99.90;;;;;;4898055;29;20317;-70
2021/11/29 20:03:02;;;;;;;6.93;2.67;;;4.60;99.90;;;;;;4899280;29;20321;-70
2021/11/29 20:05:29;;;;;;;6.20;2.67;;;4.60;99.90;;;;;;4899318;29;20711;-70
2021/11/29 20:07:56;;;;;;;6.17;3.10;;;4.70;99.90;;;;;;4899476;29;20211;-71
2021/11/29 20:10:25;;;;;;;5.87;2.70;;;4.70;99.90;;;;;;4899621;29;20214;-72
2021/11/29 20:12:52;;;;;;;8.20;3.27;;;4.60;99.90;;;;;;4899425;29;20246;-71
2021/11/29 20:15:21;;;;;;;6.33;2.67;;;4.60;99.90;;;;;;4898256;29;20301;-71
2021/11/29 20:17:49;;;;;;;8.50;3.17;;;4.60;99.90;;;;;;4880357;29;20222;-71
2021/11/29 20:20:17;;;;;;;9.73;3.80;;;4.50;99.90;;;;;;4880423;29;20211;-69
2021/11/29 20:22:44;;;;;;;10.50;3.03;;;4.60;99.90;;;;;;4880354;29;20630;-69
2021/11/29 20:25:15;;;;;;;7.50;3.40;;;4.50;99.90;;;;;;4893534;29;20229;-69
2021/11/29 20:27:45;;;;;;;5.70;3.00;;;4.50;99.90;;;;;;4899083;29;20651;-72
2021/11/29 20:30:13;;;;;;;8.53;2.93;;;4.50;99.90;;;;;;4899558;29;20287;-70
2021/11/29 20:32:40;;;;;;;6.40;2.70;;;4.50;99.90;;;;;;4883115;29;20302;-70
2021/11/29 20:35:08;;;;;;;7.67;2.80;;;4.40;99.90;;;;;;4879756;29;20253;-71
2021/11/29 20:37:35;;;;;;;8.67;3.70;;;4.40;99.90;;;;;;4880254;29;20245;-70
2021/11/29 20:40:07;;;;;;;8.57;2.90;;;4.30;99.90;;;;;;4880230;29;20679;-69
2021/11/29 20:42:34;;;;;;;6.20;2.67;;;4.20;99.90;;;;;;4893198;29;20895;-71
2021/11/29 20:45:04;;;;;;;5.50;3.03;;;4.20;99.90;;;;;;4898561;29;20238;-69
2021/11/29 20:47:31;;;;;;;5.33;3.30;;;4.20;99.90;;;;;;4890909;29;20541;-71
2021/11/29 20:49:58;;;;;;;6.07;2.97;;;4.10;99.90;;;;;;4898306;29;20220;-69
2021/11/29 20:52:25;;;;;;;4.17;2.70;;;4.10;99.90;;;;;;4898099;29;20210;-70